createdAt,value
2019-03-05T00:01:49.518Z,2.90
2019-03-05T00:04:19.279Z,3.90
2019-03-05T00:06:49.107Z,3.27
2019-03-05T00:09:20.543Z,3.10
2019-03-05T00:11:50.265Z,2.67
2019-03-05T00:14:22.642Z,3.27
2019-03-05T00:16:52.376Z,3.30
2019-03-05T00:19:22.134Z,3.53
2019-03-05T00:21:51.848Z,3.13
2019-03-05T00:24:59.667Z,3.43
2019-03-05T00:27:30.285Z,2.90
2019-03-05T00:30:19.816Z,2.90
2019-03-05T00:32:52.659Z,3.50
2019-03-05T00:35:45.400Z,2.87
2019-03-05T00:38:50.285Z,2.90
2019-03-05T00:41:32.023Z,3.10
2019-03-05T00:44:07.814Z,3.43
2019-03-05T00:46:46.776Z,2.87
2019-03-05T00:49:19.661Z,2.53
2019-03-05T00:51:52.510Z,3.40
2019-03-05T00:54:40.223Z,3.17
2019-03-05T00:57:15.782Z,2.83
2019-03-05T01:00:17.812Z,3.03
2019-03-05T01:02:50.662Z,2.90
2019-03-05T01:05:50.227Z,3.43
2019-03-05T01:08:20.052Z,3.67
2019-03-05T01:10:49.814Z,3.20
2019-03-05T01:13:19.616Z,3.63
2019-03-05T01:15:49.507Z,2.87
2019-03-05T01:18:19.222Z,2.73
2019-03-05T01:20:48.980Z,2.83
2019-03-05T01:23:18.736Z,3.10
2019-03-05T01:25:48.558Z,3.40
2019-03-05T01:28:18.461Z,3.57
2019-03-05T01:31:06.202Z,3.33
2019-03-05T01:33:40.353Z,3.67
2019-03-05T01:36:11.703Z,3.20
2019-03-05T01:38:49.065Z,3.17
2019-03-05T01:41:18.971Z,3.97
2019-03-05T01:43:48.772Z,3.13
2019-03-05T01:46:18.565Z,3.40
2019-03-05T01:48:48.334Z,3.30
2019-03-05T01:51:18.093Z,3.60
2019-03-05T01:53:47.930Z,3.10
2019-03-05T01:56:17.659Z,3.07
2019-03-05T01:58:47.423Z,3.20
2019-03-05T02:01:19.381Z,3.33
2019-03-05T02:03:49.150Z,2.97
2019-03-05T02:06:18.877Z,4.03
2019-03-05T02:08:48.635Z,3.13
2019-03-05T02:11:18.368Z,3.53
2019-03-05T02:13:48.134Z,7.47
2019-03-05T02:16:17.946Z,7.80
2019-03-05T02:18:47.734Z,6.97
2019-03-05T02:21:17.471Z,3.87
2019-03-05T02:24:02.256Z,4.10
2019-03-05T02:26:59.474Z,4.50
2019-03-05T02:29:47.264Z,4.47
2019-03-05T02:32:28.862Z,7.97
2019-03-05T02:35:04.640Z,5.37
2019-03-05T02:37:43.334Z,4.77
2019-03-05T02:40:22.469Z,4.53
2019-03-05T02:43:10.594Z,4.23
2019-03-05T02:46:01.374Z,4.43
2019-03-05T02:48:55.514Z,3.90
2019-03-05T02:51:28.432Z,4.57
2019-03-05T02:54:04.008Z,4.97
2019-03-05T02:56:45.670Z,4.10
2019-03-05T02:59:14.321Z,4.43
2019-03-05T03:01:48.393Z,4.37
2019-03-05T03:04:22.692Z,4.47
2019-03-05T03:06:52.445Z,4.27
2019-03-05T03:09:25.402Z,4.37
2019-03-05T03:11:55.193Z,4.50
2019-03-05T03:14:24.914Z,3.73
2019-03-05T03:16:54.713Z,4.77
2019-03-05T03:19:24.442Z,4.57
2019-03-05T03:21:54.202Z,4.43
2019-03-05T03:24:23.962Z,4.87
2019-03-05T03:26:53.740Z,4.43
2019-03-05T03:29:23.503Z,4.30
2019-03-05T03:31:53.272Z,4.30
2019-03-05T03:34:23.042Z,4.37
2019-03-05T03:36:52.795Z,3.93
2019-03-05T03:39:22.548Z,4.13
2019-03-05T03:41:52.280Z,4.37
2019-03-05T03:44:22.060Z,4.30
2019-03-05T03:46:51.838Z,3.73
2019-03-05T03:49:21.618Z,4.20
2019-03-05T03:51:51.658Z,3.97
2019-03-05T03:54:21.551Z,4.23
2019-03-05T03:56:51.310Z,4.23
2019-03-05T03:59:21.065Z,3.53
2019-03-05T04:01:50.832Z,4.10
2019-03-05T04:04:20.556Z,4.87
2019-03-05T04:06:50.314Z,4.20
2019-03-05T04:09:20.135Z,3.67
2019-03-05T04:11:49.882Z,4.27
2019-03-05T04:14:19.603Z,4.00
2019-03-05T04:16:49.373Z,3.77
2019-03-05T04:19:20.674Z,3.60
2019-03-05T04:21:50.439Z,3.73
2019-03-05T04:24:20.166Z,3.73
2019-03-05T04:26:49.920Z,4.10
2019-03-05T04:29:19.637Z,3.87
2019-03-05T04:31:49.403Z,4.03
2019-03-05T04:34:19.128Z,4.07
2019-03-05T04:36:48.875Z,4.40
2019-03-05T04:39:18.606Z,3.50
2019-03-05T04:41:48.361Z,3.93
2019-03-05T04:44:19.666Z,3.13
2019-03-05T04:46:50.629Z,3.27
2019-03-05T04:49:26.552Z,3.47
2019-03-05T04:51:58.127Z,3.37
2019-03-05T04:54:27.854Z,3.20
2019-03-05T04:56:57.615Z,3.60
2019-03-05T04:59:27.332Z,2.77
2019-03-05T05:01:57.124Z,4.23
2019-03-05T05:04:26.844Z,2.90
2019-03-05T05:06:56.638Z,3.37
2019-03-05T05:09:29.404Z,3.00
2019-03-05T05:11:59.227Z,2.83
2019-03-05T05:14:33.430Z,2.77
2019-03-05T05:17:03.243Z,2.57
2019-03-05T05:19:32.964Z,5.27
2019-03-05T05:22:03.283Z,13.30
2019-03-05T05:24:33.020Z,19.57
2019-03-05T05:27:02.794Z,10.07
2019-03-05T05:29:32.980Z,4.50
2019-03-05T05:32:02.774Z,2.97
2019-03-05T05:34:32.549Z,2.30
2019-03-05T05:37:03.417Z,2.60
2019-03-05T05:40:09.630Z,3.20
2019-03-05T05:42:39.392Z,2.33
2019-03-05T05:45:15.950Z,2.30
2019-03-05T05:47:47.340Z,2.47
2019-03-05T05:50:17.103Z,2.80
2019-03-05T05:52:46.864Z,3.23
2019-03-05T05:55:16.590Z,3.07
2019-03-05T05:57:46.618Z,3.10
2019-03-05T06:00:16.979Z,2.83
2019-03-05T06:02:46.739Z,3.40
2019-03-05T06:05:16.473Z,5.07
2019-03-05T06:07:46.243Z,4.73
2019-03-05T06:10:15.974Z,3.37
2019-03-05T06:12:45.737Z,4.37
2019-03-05T06:15:16.071Z,2.47
2019-03-05T06:17:45.847Z,2.53
2019-03-05T06:20:16.679Z,2.63
2019-03-05T06:22:46.457Z,3.20
2019-03-05T06:25:16.189Z,2.50
2019-03-05T06:27:45.945Z,2.87
2019-03-05T06:30:21.335Z,2.63
2019-03-05T06:32:51.122Z,2.90
2019-03-05T06:35:20.858Z,2.83
2019-03-05T06:37:50.736Z,2.40
2019-03-05T06:40:23.552Z,2.50
2019-03-05T06:42:53.365Z,5.43
2019-03-05T06:45:23.100Z,6.87
2019-03-05T06:47:56.842Z,2.73
2019-03-05T06:50:31.069Z,6.73
2019-03-05T06:53:01.251Z,3.83
2019-03-05T06:55:31.687Z,3.17
2019-03-05T06:58:01.939Z,2.70
2019-03-05T07:00:37.136Z,2.90
2019-03-05T07:03:14.109Z,2.60
2019-03-05T07:06:20.915Z,2.80
2019-03-05T07:08:53.790Z,2.60
2019-03-05T07:11:46.073Z,2.50
2019-03-05T07:14:35.710Z,3.10
2019-03-05T07:17:12.433Z,3.97
2019-03-05T07:20:01.729Z,3.73
2019-03-05T07:22:57.895Z,3.00
2019-03-05T07:25:27.654Z,3.67
2019-03-05T07:28:00.143Z,2.93
2019-03-05T07:30:30.973Z,3.10
2019-03-05T07:33:00.734Z,3.20
2019-03-05T07:35:32.626Z,3.80
2019-03-05T07:38:02.418Z,5.67
2019-03-05T07:40:33.839Z,5.60
2019-03-05T07:43:03.439Z,5.50
2019-03-05T07:45:33.192Z,4.33
2019-03-05T07:48:02.976Z,3.47
2019-03-05T07:50:32.749Z,3.70
2019-03-05T07:53:02.522Z,4.47
2019-03-05T07:55:32.295Z,4.23
2019-03-05T07:58:02.122Z,3.47
2019-03-05T08:00:31.847Z,3.27
2019-03-05T08:03:01.639Z,3.20
2019-03-05T08:05:31.406Z,3.40
2019-03-05T08:08:37.425Z,3.30
2019-03-05T08:11:08.711Z,3.60
2019-03-05T08:13:41.638Z,13.20
2019-03-05T08:16:12.957Z,24.40
2019-03-05T08:18:45.232Z,4.63
2019-03-05T08:21:14.962Z,4.83
2019-03-05T08:23:44.746Z,4.33
2019-03-05T08:26:14.478Z,5.13
2019-03-05T08:28:44.249Z,5.00
2019-03-05T08:31:14.016Z,5.33
2019-03-05T08:33:43.813Z,5.23
2019-03-05T08:36:13.575Z,7.17
2019-03-05T08:38:43.336Z,4.60
2019-03-05T08:41:13.098Z,4.23
2019-03-05T08:43:42.818Z,3.73
2019-03-05T08:46:12.578Z,4.00
2019-03-05T08:48:42.301Z,5.53
2019-03-05T08:51:12.182Z,5.00
2019-03-05T08:53:49.490Z,3.30
2019-03-05T08:56:13.400Z,5.20
2019-03-05T08:58:43.133Z,3.73
2019-03-05T09:01:12.921Z,4.67
2019-03-05T09:03:42.648Z,3.97
2019-03-05T09:06:12.437Z,3.60
2019-03-05T09:08:42.165Z,6.20
2019-03-05T09:11:11.933Z,5.23
2019-03-05T09:13:41.696Z,4.13
2019-03-05T09:16:11.485Z,3.93
2019-03-05T09:18:41.238Z,3.33
2019-03-05T09:21:13.502Z,3.87
2019-03-05T09:23:43.465Z,3.60
2019-03-05T09:26:13.312Z,3.00
2019-03-05T09:28:43.491Z,3.43
2019-03-05T09:31:13.337Z,3.10
2019-03-05T09:33:43.122Z,4.80
2019-03-05T09:36:12.879Z,3.60
2019-03-05T09:38:42.902Z,4.83
2019-03-05T09:41:13.732Z,2.90
2019-03-05T09:43:43.489Z,3.63
2019-03-05T09:46:13.620Z,3.53
2019-03-05T09:48:43.466Z,5.17
2019-03-05T09:51:13.194Z,2.93
2019-03-05T09:53:43.947Z,3.53
2019-03-05T09:56:13.683Z,7.03
2019-03-05T09:58:43.471Z,6.97
2019-03-05T10:01:13.203Z,9.20
2019-03-05T10:03:43.045Z,6.27
2019-03-05T10:06:12.918Z,4.13
2019-03-05T10:08:42.676Z,4.30
2019-03-05T10:11:12.589Z,3.00
2019-03-05T10:13:42.334Z,4.27
2019-03-05T10:16:12.096Z,3.60
2019-03-05T10:18:42.196Z,3.20
2019-03-05T10:21:12.426Z,6.07
2019-03-05T10:23:42.156Z,5.30
2019-03-05T10:26:12.346Z,5.27
2019-03-05T10:28:42.279Z,4.67
2019-03-05T10:31:12.055Z,6.40
2019-03-05T10:33:41.788Z,6.30
2019-03-05T10:36:13.096Z,5.27
2019-03-05T10:38:42.832Z,7.90
2019-03-05T10:41:14.324Z,7.50
2019-03-05T10:43:44.051Z,9.00
2019-03-05T10:46:16.083Z,9.17
2019-03-05T10:48:45.835Z,9.10
2019-03-05T10:51:20.050Z,10.87
2019-03-05T10:53:51.276Z,8.43
2019-03-05T10:56:21.035Z,7.90
2019-03-05T10:58:50.801Z,6.20
2019-03-05T11:01:20.795Z,7.57
2019-03-05T11:03:50.520Z,8.10
2019-03-05T11:06:20.303Z,7.50
2019-03-05T11:08:50.454Z,5.67
2019-03-05T11:11:20.236Z,5.40
2019-03-05T11:13:50.066Z,3.60
2019-03-05T11:16:30.121Z,9.43
2019-03-05T11:18:51.330Z,3.60
2019-03-05T11:21:21.127Z,4.03
2019-03-05T11:23:50.892Z,2.27
2019-03-05T11:26:23.935Z,4.63
2019-03-05T11:28:54.768Z,4.23
2019-03-05T11:31:24.774Z,4.50
2019-03-05T11:33:54.554Z,3.10
2019-03-05T11:36:24.650Z,3.90
2019-03-05T11:38:54.408Z,3.60
2019-03-05T11:41:24.189Z,6.20
2019-03-05T11:43:54.275Z,8.50
2019-03-05T11:46:24.016Z,10.83
2019-03-05T11:48:53.787Z,6.80
2019-03-05T11:51:23.524Z,3.80
2019-03-05T11:53:53.321Z,5.97
2019-03-05T11:56:23.068Z,8.37
2019-03-05T11:58:52.874Z,4.00
2019-03-05T12:01:24.192Z,6.03
2019-03-05T12:03:54.901Z,6.10
2019-03-05T12:06:26.082Z,10.03
2019-03-05T12:08:55.985Z,5.17
2019-03-05T12:11:31.502Z,8.63
2019-03-05T12:14:06.606Z,3.07
2019-03-05T12:16:36.523Z,4.33
2019-03-05T12:19:15.671Z,4.50
2019-03-05T12:21:46.477Z,2.40
2019-03-05T12:24:19.947Z,3.70
2019-03-05T12:26:51.266Z,2.67
2019-03-05T12:29:22.841Z,2.30
2019-03-05T12:32:02.634Z,2.33
2019-03-05T12:34:29.295Z,3.10
2019-03-05T12:37:00.682Z,3.37
2019-03-05T12:39:31.674Z,2.20
2019-03-05T12:42:07.087Z,2.10
2019-03-05T12:44:38.348Z,2.97
2019-03-05T12:47:08.055Z,2.27
2019-03-05T12:49:39.397Z,5.37
2019-03-05T12:52:09.131Z,7.00
2019-03-05T12:54:38.896Z,8.13
2019-03-05T12:57:08.653Z,4.77
2019-03-05T12:59:38.421Z,2.50
2019-03-05T13:02:08.155Z,2.70
2019-03-05T13:04:37.937Z,3.10
2019-03-05T13:07:07.770Z,2.80
2019-03-05T13:09:37.533Z,4.53
2019-03-05T13:12:07.361Z,3.83
2019-03-05T13:14:38.382Z,4.23
2019-03-05T13:17:09.391Z,4.00
2019-03-05T13:19:39.175Z,4.10
2019-03-05T13:22:08.937Z,6.00
2019-03-05T13:24:38.693Z,2.53
2019-03-05T13:27:08.455Z,2.63
2019-03-05T13:29:38.172Z,2.60
2019-03-05T13:32:07.942Z,5.27
2019-03-05T13:34:37.676Z,7.47
2019-03-05T13:37:07.458Z,4.83
2019-03-05T13:39:37.200Z,7.30
2019-03-05T13:42:08.009Z,9.07
2019-03-05T13:44:38.083Z,16.53
2019-03-05T13:47:07.858Z,12.87
2019-03-05T13:49:56.497Z,20.13
2019-03-05T13:52:57.708Z,7.43
2019-03-05T13:55:30.598Z,6.23
2019-03-05T13:58:03.503Z,5.93
2019-03-05T14:00:33.263Z,7.47
2019-03-05T14:03:11.409Z,11.17
2019-03-05T14:05:50.464Z,13.07
2019-03-05T14:08:44.753Z,10.33
2019-03-05T14:11:14.521Z,12.80
2019-03-05T14:13:44.329Z,9.40
2019-03-05T14:16:15.679Z,20.60
2019-03-05T14:18:45.471Z,19.60
2019-03-05T14:21:15.259Z,19.87
2019-03-05T14:23:45.017Z,6.80
2019-03-05T14:26:14.837Z,7.47
2019-03-05T14:28:44.681Z,13.73
2019-03-05T14:31:14.446Z,13.13
2019-03-05T14:33:45.764Z,21.17
2019-03-05T14:36:15.506Z,23.17
2019-03-05T14:38:45.279Z,23.97
2019-03-05T14:41:15.046Z,12.33
2019-03-05T14:43:44.878Z,6.17
2019-03-05T14:46:14.582Z,12.60
2019-03-05T14:48:44.406Z,11.60
2019-03-05T14:51:14.113Z,15.23
2019-03-05T14:53:43.944Z,18.87
2019-03-05T14:56:13.750Z,17.50
2019-03-05T14:58:43.501Z,18.53
2019-03-05T15:01:13.285Z,16.27
2019-03-05T15:03:43.021Z,12.50
2019-03-05T15:06:12.833Z,9.63
2019-03-05T15:08:42.672Z,10.50
2019-03-05T15:11:12.435Z,12.57
2019-03-05T15:13:42.273Z,13.40
2019-03-05T15:16:12.106Z,12.67
2019-03-05T15:18:42.132Z,7.23
2019-03-05T15:21:11.995Z,5.90
2019-03-05T15:23:41.974Z,6.60
2019-03-05T15:26:11.758Z,8.87
2019-03-05T15:28:55.738Z,7.63
2019-03-05T15:31:16.168Z,11.70
2019-03-05T15:33:46.034Z,7.33
2019-03-05T15:36:23.733Z,10.77
2019-03-05T15:38:47.318Z,3.43
2019-03-05T15:41:17.194Z,6.97
2019-03-05T15:43:47.181Z,4.40
2019-03-05T15:46:18.721Z,4.07
2019-03-05T15:48:49.201Z,5.00
2019-03-05T15:51:19.002Z,7.00
2019-03-05T15:53:48.849Z,4.97
2019-03-05T15:56:18.626Z,5.90
2019-03-05T15:58:48.410Z,6.27
2019-03-05T16:01:22.355Z,6.50
2019-03-05T16:03:49.635Z,5.57
2019-03-05T16:06:19.466Z,7.10
2019-03-05T16:08:49.204Z,6.63
2019-03-05T16:11:18.964Z,4.57
2019-03-05T16:13:52.367Z,8.33
2019-03-05T16:16:22.702Z,11.00
2019-03-05T16:18:52.439Z,9.80
2019-03-05T16:21:22.204Z,8.17
2019-03-05T16:23:53.397Z,10.50
2019-03-05T16:26:24.810Z,10.83
2019-03-05T16:28:57.364Z,6.70
2019-03-05T16:31:29.019Z,6.13
2019-03-05T16:34:09.526Z,5.83
2019-03-05T16:36:40.940Z,10.00
2019-03-05T16:39:21.583Z,5.93
2019-03-05T16:42:09.572Z,5.70
2019-03-05T16:44:40.858Z,7.40
2019-03-05T16:47:27.254Z,15.63
2019-03-05T16:50:11.419Z,13.03
2019-03-05T16:52:45.507Z,14.37
2019-03-05T16:55:35.135Z,13.23
2019-03-05T16:58:18.505Z,12.10
2019-03-05T17:00:49.822Z,11.50
2019-03-05T17:03:27.221Z,48.73
2019-03-05T17:06:01.491Z,32.37
2019-03-05T17:08:41.617Z,22.87
2019-03-05T17:11:25.027Z,11.37
2019-03-05T17:13:54.799Z,19.60
2019-03-05T17:16:24.722Z,11.87
2019-03-05T17:18:54.513Z,12.50
2019-03-05T17:31:02.997Z,9.00
2019-03-05T17:33:34.960Z,9.10
2019-03-05T17:36:06.343Z,9.93
2019-03-05T17:38:37.749Z,8.43
2019-03-05T17:41:10.105Z,9.70
2019-03-05T17:43:44.391Z,12.20
2019-03-05T17:46:14.351Z,13.40
2019-03-05T17:48:46.215Z,15.63
2019-03-05T17:51:16.416Z,12.90
2019-03-05T17:53:46.487Z,12.80
2019-03-05T17:56:17.128Z,13.37
2019-03-05T17:58:49.345Z,14.67
2019-03-05T18:01:21.798Z,12.00
2019-03-05T18:04:02.131Z,13.67
2019-03-05T18:06:41.527Z,9.00
2019-03-05T18:09:13.541Z,10.50
2019-03-05T18:11:56.389Z,11.83
2019-03-05T18:17:33.601Z,11.97
2019-03-05T19:42:28.791Z,9.00
2019-03-05T19:45:02.332Z,9.83
2019-03-05T19:47:38.530Z,8.97
2019-03-05T21:50:07.701Z,13.70
2019-03-05T22:05:29.919Z,13.60
2019-03-05T22:17:45.369Z,16.27
2019-03-05T22:20:16.928Z,16.77
2019-03-05T22:22:46.695Z,13.27
2019-03-05T22:25:23.436Z,13.50
2019-03-05T22:27:53.247Z,11.30
2019-03-05T22:30:30.615Z,10.20
2019-03-05T22:33:00.394Z,10.27
2019-03-05T22:35:30.176Z,9.27
2019-03-05T22:38:00.646Z,9.80
2019-03-05T22:40:30.442Z,8.77
2019-03-05T22:43:00.220Z,7.60
2019-03-05T22:45:31.230Z,7.93
2019-03-05T22:48:01.013Z,8.47
2019-03-05T22:50:30.786Z,9.20
2019-03-05T22:53:00.551Z,7.90
2019-03-05T22:55:30.292Z,8.47
2019-03-05T22:58:00.344Z,6.90
2019-03-05T23:00:58.259Z,7.70
2019-03-05T23:03:29.841Z,7.93
2019-03-05T23:06:00.382Z,6.87
2019-03-05T23:08:30.140Z,6.83
2019-03-05T23:10:59.998Z,7.13
2019-03-05T23:13:29.875Z,8.37
2019-03-05T23:15:59.883Z,9.20
2019-03-05T23:18:30.150Z,8.57
2019-03-05T23:20:59.883Z,8.37
2019-03-05T23:23:29.671Z,9.00
2019-03-05T23:25:59.402Z,9.53
2019-03-05T23:28:29.259Z,9.47
2019-03-05T23:30:59.004Z,7.73
2019-03-05T23:33:28.784Z,8.13
2019-03-05T23:35:58.562Z,7.33
2019-03-05T23:38:28.357Z,7.17
2019-03-05T23:40:58.119Z,7.40
2019-03-05T23:43:27.931Z,6.70
2019-03-05T23:45:57.704Z,6.37
2019-03-05T23:48:27.485Z,6.00
2019-03-05T23:50:57.537Z,6.97
2019-03-05T23:53:27.285Z,6.83
2019-03-05T23:55:57.059Z,6.73
2019-03-05T23:58:26.795Z,6.83
